sensor_id;sensor_type;location;lat;lon;timestamp;P1;durP1;ratioP1;P2;durP2;ratioP2
1140;SDS011;559;48.628;8.924;2023-02-02T00:00:43;45.05;;;42.55;;
1140;SDS011;559;48.628;8.924;2023-02-02T00:03:11;43.70;;;41.08;;
1140;SDS011;559;48.628;8.924;2023-02-02T00:05:37;45.30;;;42.65;;
1140;SDS011;559;48.628;8.924;2023-02-02T00:08:04;43.80;;;41.30;;
1140;SDS011;559;48.628;8.924;2023-02-02T00:10:30;43.03;;;40.72;;
1140;SDS011;559;48.628;8.924;2023-02-02T00:12:57;44.72;;;41.83;;
1140;SDS011;559;48.628;8.924;2023-02-02T00:15:23;43.13;;;40.63;;
1140;SDS011;559;48.628;8.924;2023-02-02T00:17:50;45.20;;;42.40;;
1140;SDS011;559;48.628;8.924;2023-02-02T00:20:18;43.42;;;40.92;;
1140;SDS011;559;48.628;8.924;2023-02-02T00:22:46;44.05;;;41.45;;
1140;SDS011;559;48.628;8.924;2023-02-02T00:25:12;43.35;;;40.80;;
1140;SDS011;559;48.628;8.924;2023-02-02T00:27:39;44.15;;;41.55;;
1140;SDS011;559;48.628;8.924;2023-02-02T00:30:06;43.90;;;41.30;;
1140;SDS011;559;48.628;8.924;2023-02-02T00:32:33;43.00;;;40.60;;
1140;SDS011;559;48.628;8.924;2023-02-02T00:35:00;42.88;;;40.33;;
1140;SDS011;559;48.628;8.924;2023-02-02T00:37:27;43.55;;;41.15;;
1140;SDS011;559;48.628;8.924;2023-02-02T00:39:54;42.80;;;40.50;;
1140;SDS011;559;48.628;8.924;2023-02-02T00:42:20;43.05;;;40.55;;
1140;SDS011;559;48.628;8.924;2023-02-02T00:44:47;43.67;;;41.38;;
1140;SDS011;559;48.628;8.924;2023-02-02T00:47:31;43.42;;;40.72;;
1140;SDS011;559;48.628;8.924;2023-02-02T00:49:57;43.85;;;40.90;;
1140;SDS011;559;48.628;8.924;2023-02-02T00:52:24;41.70;;;39.35;;
1140;SDS011;559;48.628;8.924;2023-02-02T00:54:52;42.13;;;39.83;;
1140;SDS011;559;48.628;8.924;2023-02-02T00:57:18;43.00;;;40.60;;
1140;SDS011;559;48.628;8.924;2023-02-02T00:59:45;41.92;;;39.63;;
1140;SDS011;559;48.628;8.924;2023-02-02T01:02:11;42.20;;;39.95;;
1140;SDS011;559;48.628;8.924;2023-02-02T01:04:38;42.92;;;40.33;;
1140;SDS011;559;48.628;8.924;2023-02-02T01:07:05;42.05;;;39.65;;
1140;SDS011;559;48.628;8.924;2023-02-02T01:09:31;41.97;;;39.47;;
1140;SDS011;559;48.628;8.924;2023-02-02T01:11:59;42.10;;;39.78;;
1140;SDS011;559;48.628;8.924;2023-02-02T01:14:25;42.13;;;39.85;;
1140;SDS011;559;48.628;8.924;2023-02-02T01:16:52;42.05;;;39.72;;
1140;SDS011;559;48.628;8.924;2023-02-02T01:19:18;42.45;;;39.95;;
1140;SDS011;559;48.628;8.924;2023-02-02T01:21:45;41.97;;;39.58;;
1140;SDS011;559;48.628;8.924;2023-02-02T01:24:11;43.45;;;41.05;;
1140;SDS011;559;48.628;8.924;2023-02-02T01:26:38;43.47;;;41.08;;
1140;SDS011;559;48.628;8.924;2023-02-02T01:29:06;44.97;;;41.97;;
1140;SDS011;559;48.628;8.924;2023-02-02T01:31:32;44.42;;;41.75;;
1140;SDS011;559;48.628;8.924;2023-02-02T01:33:59;44.17;;;41.58;;
1140;SDS011;559;48.628;8.924;2023-02-02T01:36:25;43.22;;;40.92;;
1140;SDS011;559;48.628;8.924;2023-02-02T01:38:52;43.80;;;41.33;;
1140;SDS011;559;48.628;8.924;2023-02-02T01:41:19;44.95;;;42.03;;
1140;SDS011;559;48.628;8.924;2023-02-02T01:43:51;43.50;;;40.95;;
1140;SDS011;559;48.628;8.924;2023-02-02T01:46:21;43.30;;;40.53;;
1140;SDS011;559;48.628;8.924;2023-02-02T01:48:50;42.50;;;40.05;;
1140;SDS011;559;48.628;8.924;2023-02-02T01:51:27;42.13;;;39.80;;
1140;SDS011;559;48.628;8.924;2023-02-02T01:53:56;42.58;;;39.97;;
1140;SDS011;559;48.628;8.924;2023-02-02T01:56:23;43.03;;;40.33;;
1140;SDS011;559;48.628;8.924;2023-02-02T01:58:52;42.13;;;39.60;;
1140;SDS011;559;48.628;8.924;2023-02-02T02:01:20;44.08;;;41.28;;
1140;SDS011;559;48.628;8.924;2023-02-02T02:03:47;43.13;;;40.63;;
1140;SDS011;559;48.628;8.924;2023-02-02T02:06:15;45.00;;;42.40;;
1140;SDS011;559;48.628;8.924;2023-02-02T02:08:45;43.55;;;40.83;;
1140;SDS011;559;48.628;8.924;2023-02-02T02:11:16;43.95;;;40.92;;
1140;SDS011;559;48.628;8.924;2023-02-02T02:13:42;44.63;;;41.83;;
1140;SDS011;559;48.628;8.924;2023-02-02T02:16:31;43.92;;;41.10;;
1140;SDS011;559;48.628;8.924;2023-02-02T02:19:07;45.70;;;42.80;;
1140;SDS011;559;48.628;8.924;2023-02-02T02:21:45;42.75;;;40.15;;
1140;SDS011;559;48.628;8.924;2023-02-02T02:27:57;44.70;;;41.60;;
1140;SDS011;559;48.628;8.924;2023-02-02T02:33:36;45.90;;;43.20;;
1140;SDS011;559;48.628;8.924;2023-02-02T02:36:10;44.58;;;41.67;;
1140;SDS011;559;48.628;8.924;2023-02-02T02:38:41;44.88;;;42.08;;
1140;SDS011;559;48.628;8.924;2023-02-02T02:41:12;45.63;;;42.63;;
1140;SDS011;559;48.628;8.924;2023-02-02T02:43:43;45.75;;;43.00;;
1140;SDS011;559;48.628;8.924;2023-02-02T02:46:11;44.45;;;41.65;;
1140;SDS011;559;48.628;8.924;2023-02-02T02:48:39;42.80;;;40.20;;
1140;SDS011;559;48.628;8.924;2023-02-02T02:51:39;44.60;;;41.58;;
1140;SDS011;559;48.628;8.924;2023-02-02T02:54:05;43.95;;;41.05;;
1140;SDS011;559;48.628;8.924;2023-02-02T02:56:32;43.92;;;41.13;;
1140;SDS011;559;48.628;8.924;2023-02-02T02:59:04;43.80;;;41.10;;
1140;SDS011;559;48.628;8.924;2023-02-02T03:01:36;45.22;;;42.42;;
1140;SDS011;559;48.628;8.924;2023-02-02T03:04:08;42.03;;;39.42;;
1140;SDS011;559;48.628;8.924;2023-02-02T03:06:40;43.80;;;41.20;;
1140;SDS011;559;48.628;8.924;2023-02-02T03:09:08;44.03;;;41.28;;
1140;SDS011;559;48.628;8.924;2023-02-02T03:11:36;44.15;;;41.30;;
1140;SDS011;559;48.628;8.924;2023-02-02T03:14:03;44.47;;;41.70;;
1140;SDS011;559;48.628;8.924;2023-02-02T03:16:33;46.15;;;42.95;;
1140;SDS011;559;48.628;8.924;2023-02-02T03:19:00;45.15;;;42.00;;
1140;SDS011;559;48.628;8.924;2023-02-02T03:21:29;44.60;;;41.60;;
1140;SDS011;559;48.628;8.924;2023-02-02T03:23:56;45.00;;;42.00;;
1140;SDS011;559;48.628;8.924;2023-02-02T03:26:22;45.05;;;42.03;;
1140;SDS011;559;48.628;8.924;2023-02-02T03:28:50;47.38;;;44.38;;
1140;SDS011;559;48.628;8.924;2023-02-02T03:31:16;47.45;;;44.42;;
1140;SDS011;559;48.628;8.924;2023-02-02T03:33:43;47.30;;;44.35;;
1140;SDS011;559;48.628;8.924;2023-02-02T03:36:10;47.90;;;44.45;;
1140;SDS011;559;48.628;8.924;2023-02-02T03:38:38;47.83;;;44.53;;
1140;SDS011;559;48.628;8.924;2023-02-02T03:41:04;47.28;;;44.28;;
1140;SDS011;559;48.628;8.924;2023-02-02T03:43:31;48.92;;;45.72;;
1140;SDS011;559;48.628;8.924;2023-02-02T03:46:00;47.38;;;44.38;;
1140;SDS011;559;48.628;8.924;2023-02-02T03:48:28;49.47;;;46.00;;
1140;SDS011;559;48.628;8.924;2023-02-02T03:50:55;46.22;;;42.83;;
1140;SDS011;559;48.628;8.924;2023-02-02T03:53:22;47.03;;;44.03;;
1140;SDS011;559;48.628;8.924;2023-02-02T03:55:50;45.15;;;42.25;;
1140;SDS011;559;48.628;8.924;2023-02-02T03:58:16;46.20;;;43.15;;
1140;SDS011;559;48.628;8.924;2023-02-02T04:00:46;46.22;;;42.95;;
1140;SDS011;559;48.628;8.924;2023-02-02T04:03:12;44.80;;;41.70;;
1140;SDS011;559;48.628;8.924;2023-02-02T04:05:39;45.95;;;43.05;;
1140;SDS011;559;48.628;8.924;2023-02-02T04:08:05;44.38;;;41.10;;
1140;SDS011;559;48.628;8.924;2023-02-02T04:10:32;46.13;;;42.92;;
1140;SDS011;559;48.628;8.924;2023-02-02T04:12:59;44.50;;;41.50;;
1140;SDS011;559;48.628;8.924;2023-02-02T04:15:26;45.83;;;42.72;;
1140;SDS011;559;48.628;8.924;2023-02-02T04:17:52;44.63;;;41.63;;
1140;SDS011;559;48.628;8.924;2023-02-02T04:20:19;45.40;;;42.25;;
1140;SDS011;559;48.628;8.924;2023-02-02T04:22:45;44.72;;;41.72;;
1140;SDS011;559;48.628;8.924;2023-02-02T04:25:12;44.60;;;41.53;;
1140;SDS011;559;48.628;8.924;2023-02-02T04:27:38;45.40;;;42.40;;
1140;SDS011;559;48.628;8.924;2023-02-02T04:30:07;44.65;;;41.55;;
1140;SDS011;559;48.628;8.924;2023-02-02T04:32:35;45.33;;;42.30;;
1140;SDS011;559;48.628;8.924;2023-02-02T04:35:01;47.50;;;44.35;;
1140;SDS011;559;48.628;8.924;2023-02-02T04:37:29;48.38;;;45.10;;
1140;SDS011;559;48.628;8.924;2023-02-02T04:39:56;47.13;;;43.83;;
1140;SDS011;559;48.628;8.924;2023-02-02T04:42:22;49.65;;;46.38;;
1140;SDS011;559;48.628;8.924;2023-02-02T04:44:49;50.35;;;47.15;;
1140;SDS011;559;48.628;8.924;2023-02-02T04:47:17;51.35;;;48.00;;
1140;SDS011;559;48.628;8.924;2023-02-02T04:49:43;49.75;;;46.40;;
1140;SDS011;559;48.628;8.924;2023-02-02T04:52:10;48.17;;;44.67;;
1140;SDS011;559;48.628;8.924;2023-02-02T04:54:36;46.63;;;43.33;;
1140;SDS011;559;48.628;8.924;2023-02-02T04:57:03;47.75;;;44.22;;
1140;SDS011;559;48.628;8.924;2023-02-02T04:59:29;47.30;;;43.85;;
1140;SDS011;559;48.628;8.924;2023-02-02T05:01:57;46.30;;;43.20;;
1140;SDS011;559;48.628;8.924;2023-02-02T05:04:25;46.83;;;43.72;;
1140;SDS011;559;48.628;8.924;2023-02-02T05:06:52;48.75;;;45.55;;
1140;SDS011;559;48.628;8.924;2023-02-02T05:09:19;47.63;;;44.50;;
1140;SDS011;559;48.628;8.924;2023-02-02T05:11:45;48.88;;;45.78;;
1140;SDS011;559;48.628;8.924;2023-02-02T05:14:12;47.92;;;44.92;;
1140;SDS011;559;48.628;8.924;2023-02-02T05:16:42;47.55;;;44.38;;
1140;SDS011;559;48.628;8.924;2023-02-02T05:19:10;47.53;;;44.33;;
1140;SDS011;559;48.628;8.924;2023-02-02T05:21:38;48.90;;;45.83;;
1140;SDS011;559;48.628;8.924;2023-02-02T05:24:05;47.05;;;44.08;;
1140;SDS011;559;48.628;8.924;2023-02-02T05:26:31;46.58;;;43.67;;
1140;SDS011;559;48.628;8.924;2023-02-02T05:28:59;47.00;;;44.00;;
1140;SDS011;559;48.628;8.924;2023-02-02T05:31:25;49.20;;;46.20;;
1140;SDS011;559;48.628;8.924;2023-02-02T05:33:52;46.70;;;43.80;;
1140;SDS011;559;48.628;8.924;2023-02-02T05:36:18;47.45;;;44.55;;
1140;SDS011;559;48.628;8.924;2023-02-02T05:38:46;48.92;;;45.80;;
1140;SDS011;559;48.628;8.924;2023-02-02T05:41:13;47.08;;;44.25;;
1140;SDS011;559;48.628;8.924;2023-02-02T05:43:39;46.15;;;43.25;;
1140;SDS011;559;48.628;8.924;2023-02-02T05:46:06;49.58;;;46.40;;
1140;SDS011;559;48.628;8.924;2023-02-02T05:48:32;48.45;;;45.45;;
1140;SDS011;559;48.628;8.924;2023-02-02T05:51:00;51.10;;;48.00;;
1140;SDS011;559;48.628;8.924;2023-02-02T05:53:29;49.65;;;46.45;;
1140;SDS011;559;48.628;8.924;2023-02-02T05:55:57;47.25;;;44.25;;
1140;SDS011;559;48.628;8.924;2023-02-02T05:58:24;49.80;;;46.70;;
1140;SDS011;559;48.628;8.924;2023-02-02T06:00:52;49.50;;;46.40;;
1140;SDS011;559;48.628;8.924;2023-02-02T06:03:18;49.03;;;46.03;;
1140;SDS011;559;48.628;8.924;2023-02-02T06:05:45;53.03;;;49.90;;
1140;SDS011;559;48.628;8.924;2023-02-02T06:08:12;51.05;;;47.65;;
1140;SDS011;559;48.628;8.924;2023-02-02T06:10:38;52.53;;;49.13;;
1140;SDS011;559;48.628;8.924;2023-02-02T06:13:07;51.08;;;47.60;;
1140;SDS011;559;48.628;8.924;2023-02-02T06:15:33;51.63;;;48.40;;
1140;SDS011;559;48.628;8.924;2023-02-02T06:18:00;50.95;;;47.58;;
1140;SDS011;559;48.628;8.924;2023-02-02T06:20:27;50.72;;;47.60;;
1140;SDS011;559;48.628;8.924;2023-02-02T06:22:54;56.05;;;52.63;;
1140;SDS011;559;48.628;8.924;2023-02-02T06:25:20;54.03;;;50.47;;
1140;SDS011;559;48.628;8.924;2023-02-02T06:27:47;53.53;;;49.85;;
1140;SDS011;559;48.628;8.924;2023-02-02T06:30:15;52.78;;;49.30;;
1140;SDS011;559;48.628;8.924;2023-02-02T06:32:42;54.20;;;50.88;;
1140;SDS011;559;48.628;8.924;2023-02-02T06:35:08;51.10;;;47.80;;
1140;SDS011;559;48.628;8.924;2023-02-02T06:37:35;53.00;;;49.60;;
1140;SDS011;559;48.628;8.924;2023-02-02T06:40:03;52.40;;;49.10;;
1140;SDS011;559;48.628;8.924;2023-02-02T06:42:31;51.70;;;48.40;;
1140;SDS011;559;48.628;8.924;2023-02-02T06:44:58;54.47;;;50.78;;
1140;SDS011;559;48.628;8.924;2023-02-02T06:47:26;51.85;;;48.25;;
1140;SDS011;559;48.628;8.924;2023-02-02T06:49:52;54.08;;;50.42;;
1140;SDS011;559;48.628;8.924;2023-02-02T06:52:19;58.17;;;54.35;;
1140;SDS011;559;48.628;8.924;2023-02-02T06:54:45;58.60;;;54.50;;
1140;SDS011;559;48.628;8.924;2023-02-02T06:57:12;66.00;;;61.80;;
1140;SDS011;559;48.628;8.924;2023-02-02T06:59:38;73.50;;;69.10;;
1140;SDS011;559;48.628;8.924;2023-02-02T07:02:07;68.53;;;64.13;;
1140;SDS011;559;48.628;8.924;2023-02-02T07:04:37;68.28;;;63.70;;
1140;SDS011;559;48.628;8.924;2023-02-02T07:07:03;71.18;;;66.90;;
1140;SDS011;559;48.628;8.924;2023-02-02T07:09:30;74.32;;;69.82;;
1140;SDS011;559;48.628;8.924;2023-02-02T07:11:57;77.38;;;72.78;;
1140;SDS011;559;48.628;8.924;2023-02-02T07:14:23;64.88;;;60.78;;
1140;SDS011;559;48.628;8.924;2023-02-02T07:16:51;67.97;;;63.85;;
1140;SDS011;559;48.628;8.924;2023-02-02T07:19:17;67.72;;;63.53;;
1140;SDS011;559;48.628;8.924;2023-02-02T07:21:45;63.08;;;58.85;;
1140;SDS011;559;48.628;8.924;2023-02-02T07:24:12;65.88;;;61.67;;
1140;SDS011;559;48.628;8.924;2023-02-02T07:26:38;63.55;;;59.45;;
1140;SDS011;559;48.628;8.924;2023-02-02T07:29:05;70.40;;;65.95;;
1140;SDS011;559;48.628;8.924;2023-02-02T07:31:31;59.03;;;55.03;;
1140;SDS011;559;48.628;8.924;2023-02-02T07:33:58;58.95;;;54.80;;
1140;SDS011;559;48.628;8.924;2023-02-02T07:36:24;63.17;;;59.03;;
1140;SDS011;559;48.628;8.924;2023-02-02T07:38:52;60.05;;;56.17;;
1140;SDS011;559;48.628;8.924;2023-02-02T07:41:21;64.80;;;60.67;;
1140;SDS011;559;48.628;8.924;2023-02-02T07:43:48;60.50;;;56.10;;
1140;SDS011;559;48.628;8.924;2023-02-02T07:46:16;58.10;;;53.80;;
1140;SDS011;559;48.628;8.924;2023-02-02T07:48:42;56.95;;;53.20;;
1140;SDS011;559;48.628;8.924;2023-02-02T07:51:10;56.50;;;52.80;;
1140;SDS011;559;48.628;8.924;2023-02-02T07:53:37;56.35;;;52.55;;
1140;SDS011;559;48.628;8.924;2023-02-02T07:56:07;53.40;;;49.80;;
1140;SDS011;559;48.628;8.924;2023-02-02T07:58:34;53.45;;;49.75;;
1140;SDS011;559;48.628;8.924;2023-02-02T08:01:01;56.92;;;53.22;;
1140;SDS011;559;48.628;8.924;2023-02-02T08:03:28;53.67;;;50.08;;
1140;SDS011;559;48.628;8.924;2023-02-02T08:05:54;53.42;;;49.83;;
1140;SDS011;559;48.628;8.924;2023-02-02T08:08:21;55.17;;;51.78;;
1140;SDS011;559;48.628;8.924;2023-02-02T08:10:47;55.40;;;51.50;;
1140;SDS011;559;48.628;8.924;2023-02-02T08:13:15;52.33;;;48.92;;
1140;SDS011;559;48.628;8.924;2023-02-02T08:15:42;51.45;;;48.15;;
1140;SDS011;559;48.628;8.924;2023-02-02T08:18:08;53.45;;;50.00;;
1140;SDS011;559;48.628;8.924;2023-02-02T08:20:35;55.90;;;52.35;;
1140;SDS011;559;48.628;8.924;2023-02-02T08:23:01;54.97;;;51.58;;
1140;SDS011;559;48.628;8.924;2023-02-02T08:25:28;52.90;;;49.40;;
1140;SDS011;559;48.628;8.924;2023-02-02T08:27:55;51.75;;;48.35;;
1140;SDS011;559;48.628;8.924;2023-02-02T08:30:24;53.15;;;49.53;;
1140;SDS011;559;48.628;8.924;2023-02-02T08:32:50;54.60;;;51.08;;
1140;SDS011;559;48.628;8.924;2023-02-02T08:35:17;52.42;;;48.88;;
1140;SDS011;559;48.628;8.924;2023-02-02T08:37:45;52.70;;;49.20;;
1140;SDS011;559;48.628;8.924;2023-02-02T08:40:12;52.38;;;48.50;;
1140;SDS011;559;48.628;8.924;2023-02-02T08:42:39;52.60;;;48.90;;
1140;SDS011;559;48.628;8.924;2023-02-02T08:45:06;52.45;;;48.85;;
1140;SDS011;559;48.628;8.924;2023-02-02T08:47:34;51.15;;;47.95;;
1140;SDS011;559;48.628;8.924;2023-02-02T08:50:01;50.80;;;47.13;;
1140;SDS011;559;48.628;8.924;2023-02-02T08:52:27;51.22;;;47.92;;
1140;SDS011;559;48.628;8.924;2023-02-02T08:54:54;49.80;;;46.70;;
1140;SDS011;559;48.628;8.924;2023-02-02T08:57:20;49.53;;;46.42;;
1140;SDS011;559;48.628;8.924;2023-02-02T08:59:47;50.00;;;46.70;;
1140;SDS011;559;48.628;8.924;2023-02-02T09:02:13;50.60;;;47.33;;
1140;SDS011;559;48.628;8.924;2023-02-02T09:04:42;51.15;;;47.55;;
1140;SDS011;559;48.628;8.924;2023-02-02T09:07:09;51.05;;;47.78;;
1140;SDS011;559;48.628;8.924;2023-02-02T09:09:36;47.28;;;44.38;;
1140;SDS011;559;48.628;8.924;2023-02-02T09:12:02;49.75;;;46.47;;
1140;SDS011;559;48.628;8.924;2023-02-02T09:14:29;51.80;;;48.80;;
1140;SDS011;559;48.628;8.924;2023-02-02T09:16:55;52.28;;;48.88;;
1140;SDS011;559;48.628;8.924;2023-02-02T09:19:22;49.65;;;46.55;;
1140;SDS011;559;48.628;8.924;2023-02-02T09:21:50;48.47;;;45.17;;
1140;SDS011;559;48.628;8.924;2023-02-02T09:24:16;48.97;;;45.83;;
1140;SDS011;559;48.628;8.924;2023-02-02T09:26:43;47.90;;;44.80;;
1140;SDS011;559;48.628;8.924;2023-02-02T09:29:11;50.05;;;47.00;;
1140;SDS011;559;48.628;8.924;2023-02-02T09:31:38;48.42;;;45.15;;
1140;SDS011;559;48.628;8.924;2023-02-02T09:34:05;49.22;;;45.85;;
1140;SDS011;559;48.628;8.924;2023-02-02T09:36:33;53.13;;;49.22;;
1140;SDS011;559;48.628;8.924;2023-02-02T09:39:01;53.63;;;49.83;;
1140;SDS011;559;48.628;8.924;2023-02-02T09:41:38;52.95;;;49.58;;
1140;SDS011;559;48.628;8.924;2023-02-02T09:44:32;53.35;;;49.63;;
1140;SDS011;559;48.628;8.924;2023-02-02T09:47:09;52.13;;;48.40;;
1140;SDS011;559;48.628;8.924;2023-02-02T09:49:43;50.13;;;46.60;;
1140;SDS011;559;48.628;8.924;2023-02-02T09:52:17;52.55;;;48.85;;
1140;SDS011;559;48.628;8.924;2023-02-02T09:54:50;51.00;;;47.60;;
1140;SDS011;559;48.628;8.924;2023-02-02T09:57:20;51.95;;;48.55;;
1140;SDS011;559;48.628;8.924;2023-02-02T09:59:50;53.35;;;49.85;;
1140;SDS011;559;48.628;8.924;2023-02-02T10:02:22;51.85;;;48.25;;
1140;SDS011;559;48.628;8.924;2023-02-02T10:04:51;56.70;;;52.90;;
1140;SDS011;559;48.628;8.924;2023-02-02T10:07:21;54.00;;;50.50;;
1140;SDS011;559;48.628;8.924;2023-02-02T10:09:53;54.75;;;51.05;;
1140;SDS011;559;48.628;8.924;2023-02-02T10:12:27;57.42;;;53.72;;
1140;SDS011;559;48.628;8.924;2023-02-02T10:14:57;59.40;;;55.50;;
1140;SDS011;559;48.628;8.924;2023-02-02T10:17:30;56.58;;;52.88;;
1140;SDS011;559;48.628;8.924;2023-02-02T10:20:04;57.40;;;53.50;;
1140;SDS011;559;48.628;8.924;2023-02-02T10:22:38;56.97;;;53.10;;
1140;SDS011;559;48.628;8.924;2023-02-02T10:25:07;58.58;;;54.63;;
1140;SDS011;559;48.628;8.924;2023-02-02T10:27:37;60.90;;;57.00;;
1140;SDS011;559;48.628;8.924;2023-02-02T10:30:06;56.38;;;52.58;;
1140;SDS011;559;48.628;8.924;2023-02-02T10:32:43;60.33;;;56.00;;
1140;SDS011;559;48.628;8.924;2023-02-02T10:35:20;60.28;;;56.40;;
1140;SDS011;559;48.628;8.924;2023-02-02T10:37:55;69.10;;;65.30;;
1140;SDS011;559;48.628;8.924;2023-02-02T10:40:31;58.05;;;54.25;;
1140;SDS011;559;48.628;8.924;2023-02-02T10:43:13;56.35;;;52.65;;
1140;SDS011;559;48.628;8.924;2023-02-02T10:46:04;58.15;;;54.55;;
1140;SDS011;559;48.628;8.924;2023-02-02T10:48:36;59.40;;;55.35;;
1140;SDS011;559;48.628;8.924;2023-02-02T10:51:05;56.40;;;52.70;;
1140;SDS011;559;48.628;8.924;2023-02-02T10:53:36;56.95;;;53.13;;
1140;SDS011;559;48.628;8.924;2023-02-02T10:56:05;58.75;;;54.85;;
1140;SDS011;559;48.628;8.924;2023-02-02T10:58:36;57.85;;;54.15;;
1140;SDS011;559;48.628;8.924;2023-02-02T11:01:06;60.28;;;56.50;;
1140;SDS011;559;48.628;8.924;2023-02-02T11:03:35;55.05;;;51.13;;
1140;SDS011;559;48.628;8.924;2023-02-02T11:06:03;55.25;;;51.45;;
1140;SDS011;559;48.628;8.924;2023-02-02T11:08:49;56.53;;;52.92;;
1140;SDS011;559;48.628;8.924;2023-02-02T11:11:22;52.83;;;49.30;;
1140;SDS011;559;48.628;8.924;2023-02-02T11:13:50;55.40;;;51.90;;
1140;SDS011;559;48.628;8.924;2023-02-02T11:16:19;52.22;;;48.42;;
1140;SDS011;559;48.628;8.924;2023-02-02T11:18:48;54.95;;;51.10;;
1140;SDS011;559;48.628;8.924;2023-02-02T11:21:16;53.80;;;50.10;;
1140;SDS011;559;48.628;8.924;2023-02-02T11:23:49;50.95;;;47.55;;
1140;SDS011;559;48.628;8.924;2023-02-02T11:26:17;52.88;;;49.08;;
1140;SDS011;559;48.628;8.924;2023-02-02T11:28:45;52.25;;;48.63;;
1140;SDS011;559;48.628;8.924;2023-02-02T11:31:27;56.67;;;52.78;;
1140;SDS011;559;48.628;8.924;2023-02-02T11:34:02;50.10;;;46.30;;
1140;SDS011;559;48.628;8.924;2023-02-02T11:36:34;53.70;;;50.10;;
1140;SDS011;559;48.628;8.924;2023-02-02T11:39:13;53.65;;;49.58;;
1140;SDS011;559;48.628;8.924;2023-02-02T11:41:40;53.40;;;49.70;;
1140;SDS011;559;48.628;8.924;2023-02-02T11:44:11;52.83;;;49.20;;
1140;SDS011;559;48.628;8.924;2023-02-02T11:46:44;52.95;;;49.22;;
1140;SDS011;559;48.628;8.924;2023-02-02T11:49:13;52.83;;;49.03;;
1140;SDS011;559;48.628;8.924;2023-02-02T11:51:43;54.83;;;51.22;;
1140;SDS011;559;48.628;8.924;2023-02-02T11:54:14;57.30;;;53.40;;
1140;SDS011;559;48.628;8.924;2023-02-02T11:56:46;56.05;;;52.03;;
1140;SDS011;559;48.628;8.924;2023-02-02T11:59:27;52.90;;;49.28;;
1140;SDS011;559;48.628;8.924;2023-02-02T12:04:48;55.70;;;52.10;;
1140;SDS011;559;48.628;8.924;2023-02-02T12:07:16;58.63;;;54.83;;
1140;SDS011;559;48.628;8.924;2023-02-02T12:09:44;56.78;;;52.85;;
1140;SDS011;559;48.628;8.924;2023-02-02T12:12:14;58.60;;;54.80;;
1140;SDS011;559;48.628;8.924;2023-02-02T12:14:53;57.00;;;52.92;;
1140;SDS011;559;48.628;8.924;2023-02-02T12:17:27;57.35;;;53.45;;
1140;SDS011;559;48.628;8.924;2023-02-02T12:20:24;52.95;;;49.55;;
1140;SDS011;559;48.628;8.924;2023-02-02T12:23:26;55.58;;;51.97;;
1140;SDS011;559;48.628;8.924;2023-02-02T12:26:19;52.50;;;49.22;;
1140;SDS011;559;48.628;8.924;2023-02-02T12:28:52;50.95;;;47.72;;
1140;SDS011;559;48.628;8.924;2023-02-02T12:31:27;51.35;;;48.05;;
1140;SDS011;559;48.628;8.924;2023-02-02T12:34:04;53.42;;;49.97;;
1140;SDS011;559;48.628;8.924;2023-02-02T12:36:37;53.40;;;49.80;;
1140;SDS011;559;48.628;8.924;2023-02-02T12:39:18;52.47;;;48.85;;
1140;SDS011;559;48.628;8.924;2023-02-02T12:41:52;56.55;;;53.25;;
1140;SDS011;559;48.628;8.924;2023-02-02T12:44:44;53.20;;;49.83;;
1140;SDS011;559;48.628;8.924;2023-02-02T12:47:20;53.10;;;49.60;;
1140;SDS011;559;48.628;8.924;2023-02-02T12:49:59;53.20;;;49.40;;
1140;SDS011;559;48.628;8.924;2023-02-02T12:52:36;53.22;;;49.83;;
1140;SDS011;559;48.628;8.924;2023-02-02T12:55:14;51.42;;;48.20;;
1140;SDS011;559;48.628;8.924;2023-02-02T12:57:49;50.85;;;47.78;;
1140;SDS011;559;48.628;8.924;2023-02-02T13:00:25;52.20;;;48.63;;
1140;SDS011;559;48.628;8.924;2023-02-02T13:03:05;51.60;;;48.35;;
1140;SDS011;559;48.628;8.924;2023-02-02T13:05:43;55.10;;;51.50;;
1140;SDS011;559;48.628;8.924;2023-02-02T13:08:19;55.92;;;52.53;;
1140;SDS011;559;48.628;8.924;2023-02-02T13:10:50;58.63;;;55.25;;
1140;SDS011;559;48.628;8.924;2023-02-02T13:13:19;55.15;;;51.75;;
1140;SDS011;559;48.628;8.924;2023-02-02T13:15:50;56.60;;;53.20;;
1140;SDS011;559;48.628;8.924;2023-02-02T13:18:22;56.55;;;52.95;;
1140;SDS011;559;48.628;8.924;2023-02-02T13:20:50;57.38;;;53.75;;
1140;SDS011;559;48.628;8.924;2023-02-02T13:23:19;59.85;;;56.45;;
1140;SDS011;559;48.628;8.924;2023-02-02T13:25:49;55.67;;;52.35;;
1140;SDS011;559;48.628;8.924;2023-02-02T13:28:24;54.55;;;51.15;;
1140;SDS011;559;48.628;8.924;2023-02-02T13:30:55;53.80;;;50.70;;
1140;SDS011;559;48.628;8.924;2023-02-02T13:33:26;54.97;;;51.72;;
1140;SDS011;559;48.628;8.924;2023-02-02T13:35:56;57.85;;;54.58;;
1140;SDS011;559;48.628;8.924;2023-02-02T13:38:26;56.90;;;53.60;;
1140;SDS011;559;48.628;8.924;2023-02-02T13:40:54;55.58;;;52.17;;
1140;SDS011;559;48.628;8.924;2023-02-02T13:43:28;59.05;;;55.45;;
1140;SDS011;559;48.628;8.924;2023-02-02T13:46:01;57.90;;;54.25;;
1140;SDS011;559;48.628;8.924;2023-02-02T13:48:37;58.85;;;55.30;;
1140;SDS011;559;48.628;8.924;2023-02-02T13:51:24;58.47;;;54.90;;
1140;SDS011;559;48.628;8.924;2023-02-02T13:54:25;60.63;;;56.63;;
1140;SDS011;559;48.628;8.924;2023-02-02T13:57:17;58.75;;;55.08;;
1140;SDS011;559;48.628;8.924;2023-02-02T14:00:02;58.45;;;54.67;;
1140;SDS011;559;48.628;8.924;2023-02-02T14:02:31;55.30;;;51.35;;
1140;SDS011;559;48.628;8.924;2023-02-02T14:05:02;51.63;;;48.40;;
1140;SDS011;559;48.628;8.924;2023-02-02T14:07:33;52.58;;;48.70;;
1140;SDS011;559;48.628;8.924;2023-02-02T14:10:03;54.53;;;50.10;;
1140;SDS011;559;48.628;8.924;2023-02-02T14:12:31;54.53;;;50.95;;
1140;SDS011;559;48.628;8.924;2023-02-02T14:14:59;52.25;;;48.90;;
1140;SDS011;559;48.628;8.924;2023-02-02T14:26:16;53.60;;;50.50;;
1140;SDS011;559;48.628;8.924;2023-02-02T14:28:45;52.08;;;48.22;;
1140;SDS011;559;48.628;8.924;2023-02-02T14:34:27;63.15;;;58.97;;
1140;SDS011;559;48.628;8.924;2023-02-02T14:37:01;50.47;;;47.17;;
1140;SDS011;559;48.628;8.924;2023-02-02T14:39:46;50.22;;;47.22;;
1140;SDS011;559;48.628;8.924;2023-02-02T14:42:21;50.65;;;47.35;;
1140;SDS011;559;48.628;8.924;2023-02-02T14:45:13;47.90;;;45.00;;
1140;SDS011;559;48.628;8.924;2023-02-02T14:47:46;60.17;;;55.00;;
1140;SDS011;559;48.628;8.924;2023-02-02T14:50:15;46.95;;;43.95;;
1140;SDS011;559;48.628;8.924;2023-02-02T14:52:44;51.47;;;48.28;;
1140;SDS011;559;48.628;8.924;2023-02-02T14:55:21;48.08;;;45.35;;
1140;SDS011;559;48.628;8.924;2023-02-02T14:57:52;49.03;;;46.25;;
1140;SDS011;559;48.628;8.924;2023-02-02T15:00:20;49.75;;;46.78;;
1140;SDS011;559;48.628;8.924;2023-02-02T15:02:48;47.97;;;44.88;;
1140;SDS011;559;48.628;8.924;2023-02-02T15:05:33;50.28;;;46.42;;
1140;SDS011;559;48.628;8.924;2023-02-02T15:08:09;49.58;;;46.20;;
1140;SDS011;559;48.628;8.924;2023-02-02T15:10:56;46.25;;;43.20;;
1140;SDS011;559;48.628;8.924;2023-02-02T15:13:24;47.10;;;43.90;;
1140;SDS011;559;48.628;8.924;2023-02-02T15:16:04;48.45;;;45.42;;
1140;SDS011;559;48.628;8.924;2023-02-02T15:18:33;47.42;;;44.50;;
1140;SDS011;559;48.628;8.924;2023-02-02T15:21:06;48.35;;;45.45;;
1140;SDS011;559;48.628;8.924;2023-02-02T15:23:35;49.90;;;46.90;;
1140;SDS011;559;48.628;8.924;2023-02-02T15:26:06;52.28;;;48.78;;
1140;SDS011;559;48.628;8.924;2023-02-02T15:28:36;51.53;;;48.33;;
1140;SDS011;559;48.628;8.924;2023-02-02T15:31:11;49.63;;;46.45;;
1140;SDS011;559;48.628;8.924;2023-02-02T15:33:42;48.65;;;45.72;;
1140;SDS011;559;48.628;8.924;2023-02-02T15:36:10;49.65;;;46.45;;
1140;SDS011;559;48.628;8.924;2023-02-02T15:38:40;52.40;;;49.08;;